sensor_id;sensor_type;location;lat;lon;timestamp;P1;durP1;ratioP1;P2;durP2;ratioP2
50769;SDS011;36740;48.698;11.472;2023-05-07T00:00:21;6.28;;;2.65;;
50769;SDS011;36740;48.698;11.472;2023-05-07T00:03:07;2.75;;;2.05;;
50769;SDS011;36740;48.698;11.472;2023-05-07T00:05:52;3.05;;;2.17;;
50769;SDS011;36740;48.698;11.472;2023-05-07T00:08:38;4.00;;;2.80;;
50769;SDS011;36740;48.698;11.472;2023-05-07T00:11:24;4.13;;;2.95;;
50769;SDS011;36740;48.698;11.472;2023-05-07T00:14:09;4.10;;;2.45;;
50769;SDS011;36740;48.698;11.472;2023-05-07T00:16:55;5.60;;;3.40;;
50769;SDS011;36740;48.698;11.472;2023-05-07T00:19:40;3.00;;;2.25;;
50769;SDS011;36740;48.698;11.472;2023-05-07T00:22:26;7.03;;;3.03;;
50769;SDS011;36740;48.698;11.472;2023-05-07T00:25:12;7.90;;;2.25;;
50769;SDS011;36740;48.698;11.472;2023-05-07T00:27:57;7.13;;;3.08;;
50769;SDS011;36740;48.698;11.472;2023-05-07T00:30:48;2.85;;;2.13;;
50769;SDS011;36740;48.698;11.472;2023-05-07T00:33:33;6.20;;;2.78;;
50769;SDS011;36740;48.698;11.472;2023-05-07T00:36:19;3.67;;;2.25;;
50769;SDS011;36740;48.698;11.472;2023-05-07T00:39:04;2.95;;;2.00;;
50769;SDS011;36740;48.698;11.472;2023-05-07T00:41:50;4.50;;;2.88;;
50769;SDS011;36740;48.698;11.472;2023-05-07T00:44:36;4.05;;;2.47;;
50769;SDS011;36740;48.698;11.472;2023-05-07T00:47:22;5.68;;;4.03;;
50769;SDS011;36740;48.698;11.472;2023-05-07T00:50:08;5.70;;;3.40;;
50769;SDS011;36740;48.698;11.472;2023-05-07T00:52:55;5.03;;;3.03;;
50769;SDS011;36740;48.698;11.472;2023-05-07T00:55:41;3.92;;;3.08;;
50769;SDS011;36740;48.698;11.472;2023-05-07T00:58:27;4.50;;;2.75;;
50769;SDS011;36740;48.698;11.472;2023-05-07T01:01:12;5.28;;;3.28;;
50769;SDS011;36740;48.698;11.472;2023-05-07T01:03:58;3.80;;;2.28;;
50769;SDS011;36740;48.698;11.472;2023-05-07T01:06:44;5.05;;;2.30;;
50769;SDS011;36740;48.698;11.472;2023-05-07T01:09:30;4.65;;;2.85;;
50769;SDS011;36740;48.698;11.472;2023-05-07T01:12:16;3.35;;;2.15;;
50769;SDS011;36740;48.698;11.472;2023-05-07T01:15:01;7.72;;;3.47;;
50769;SDS011;36740;48.698;11.472;2023-05-07T01:17:47;4.75;;;3.47;;
50769;SDS011;36740;48.698;11.472;2023-05-07T01:20:33;4.50;;;2.85;;
50769;SDS011;36740;48.698;11.472;2023-05-07T01:23:18;5.90;;;3.92;;
50769;SDS011;36740;48.698;11.472;2023-05-07T01:26:04;9.82;;;3.63;;
50769;SDS011;36740;48.698;11.472;2023-05-07T01:28:50;6.00;;;2.67;;
50769;SDS011;36740;48.698;11.472;2023-05-07T01:31:35;6.72;;;2.70;;
50769;SDS011;36740;48.698;11.472;2023-05-07T01:34:22;4.15;;;2.80;;
50769;SDS011;36740;48.698;11.472;2023-05-07T01:37:08;4.75;;;3.13;;
50769;SDS011;36740;48.698;11.472;2023-05-07T01:39:53;4.85;;;2.75;;
50769;SDS011;36740;48.698;11.472;2023-05-07T01:42:39;2.45;;;2.15;;
50769;SDS011;36740;48.698;11.472;2023-05-07T01:45:26;3.60;;;3.10;;
50769;SDS011;36740;48.698;11.472;2023-05-07T01:48:12;4.97;;;2.97;;
50769;SDS011;36740;48.698;11.472;2023-05-07T01:50:58;5.25;;;3.15;;
50769;SDS011;36740;48.698;11.472;2023-05-07T01:53:44;5.47;;;3.28;;
50769;SDS011;36740;48.698;11.472;2023-05-07T01:56:33;4.90;;;3.30;;
50769;SDS011;36740;48.698;11.472;2023-05-07T01:59:18;5.95;;;3.20;;
50769;SDS011;36740;48.698;11.472;2023-05-07T02:02:04;3.70;;;3.10;;
50769;SDS011;36740;48.698;11.472;2023-05-07T02:04:49;5.32;;;3.40;;
50769;SDS011;36740;48.698;11.472;2023-05-07T02:07:35;8.23;;;4.60;;
50769;SDS011;36740;48.698;11.472;2023-05-07T02:10:21;9.73;;;2.65;;
50769;SDS011;36740;48.698;11.472;2023-05-07T02:13:06;4.50;;;2.78;;
50769;SDS011;36740;48.698;11.472;2023-05-07T02:15:52;7.63;;;3.05;;
50769;SDS011;36740;48.698;11.472;2023-05-07T02:18:38;4.13;;;2.95;;
50769;SDS011;36740;48.698;11.472;2023-05-07T02:21:24;13.10;;;3.72;;
50769;SDS011;36740;48.698;11.472;2023-05-07T02:24:10;4.93;;;3.05;;
50769;SDS011;36740;48.698;11.472;2023-05-07T02:26:56;7.93;;;4.18;;
50769;SDS011;36740;48.698;11.472;2023-05-07T02:29:41;5.20;;;3.92;;
50769;SDS011;36740;48.698;11.472;2023-05-07T02:32:27;5.13;;;3.28;;
50769;SDS011;36740;48.698;11.472;2023-05-07T02:35:12;7.78;;;3.65;;
50769;SDS011;36740;48.698;11.472;2023-05-07T02:37:58;10.30;;;4.18;;
50769;SDS011;36740;48.698;11.472;2023-05-07T02:40:44;3.95;;;3.15;;
50769;SDS011;36740;48.698;11.472;2023-05-07T02:43:29;4.60;;;2.92;;
50769;SDS011;36740;48.698;11.472;2023-05-07T02:46:15;4.40;;;3.15;;
50769;SDS011;36740;48.698;11.472;2023-05-07T02:49:01;4.60;;;2.90;;
50769;SDS011;36740;48.698;11.472;2023-05-07T02:51:46;9.43;;;3.53;;
50769;SDS011;36740;48.698;11.472;2023-05-07T02:54:32;5.63;;;3.03;;
50769;SDS011;36740;48.698;11.472;2023-05-07T02:57:17;4.15;;;3.30;;
50769;SDS011;36740;48.698;11.472;2023-05-07T03:00:13;7.80;;;3.63;;
50769;SDS011;36740;48.698;11.472;2023-05-07T03:02:59;4.20;;;3.15;;
50769;SDS011;36740;48.698;11.472;2023-05-07T03:05:44;8.50;;;3.95;;
50769;SDS011;36740;48.698;11.472;2023-05-07T03:08:30;5.43;;;3.08;;
50769;SDS011;36740;48.698;11.472;2023-05-07T03:11:16;6.95;;;4.05;;
50769;SDS011;36740;48.698;11.472;2023-05-07T03:14:01;6.07;;;3.97;;
50769;SDS011;36740;48.698;11.472;2023-05-07T03:16:47;6.55;;;4.38;;
50769;SDS011;36740;48.698;11.472;2023-05-07T03:19:33;5.40;;;4.22;;
50769;SDS011;36740;48.698;11.472;2023-05-07T03:22:18;6.10;;;4.20;;
50769;SDS011;36740;48.698;11.472;2023-05-07T03:25:04;6.03;;;2.83;;
50769;SDS011;36740;48.698;11.472;2023-05-07T03:27:50;7.35;;;4.55;;
50769;SDS011;36740;48.698;11.472;2023-05-07T03:30:35;4.55;;;3.53;;
50769;SDS011;36740;48.698;11.472;2023-05-07T03:33:21;7.60;;;4.15;;
50769;SDS011;36740;48.698;11.472;2023-05-07T03:36:06;4.57;;;3.78;;
50769;SDS011;36740;48.698;11.472;2023-05-07T03:38:52;5.53;;;2.85;;
50769;SDS011;36740;48.698;11.472;2023-05-07T03:41:38;6.18;;;4.13;;
50769;SDS011;36740;48.698;11.472;2023-05-07T03:44:23;6.80;;;3.90;;
50769;SDS011;36740;48.698;11.472;2023-05-07T03:47:09;8.70;;;4.72;;
50769;SDS011;36740;48.698;11.472;2023-05-07T03:49:55;5.68;;;3.65;;
50769;SDS011;36740;48.698;11.472;2023-05-07T03:52:41;6.90;;;3.88;;
50769;SDS011;36740;48.698;11.472;2023-05-07T03:55:26;8.38;;;4.07;;
50769;SDS011;36740;48.698;11.472;2023-05-07T03:58:12;6.15;;;3.63;;
50769;SDS011;36740;48.698;11.472;2023-05-07T04:00:58;6.20;;;3.25;;
50769;SDS011;36740;48.698;11.472;2023-05-07T04:03:43;8.30;;;5.13;;
50769;SDS011;36740;48.698;11.472;2023-05-07T04:06:29;12.40;;;5.65;;
50769;SDS011;36740;48.698;11.472;2023-05-07T04:09:15;7.13;;;4.07;;
50769;SDS011;36740;48.698;11.472;2023-05-07T04:12:00;7.55;;;3.22;;
50769;SDS011;36740;48.698;11.472;2023-05-07T04:14:46;6.90;;;4.07;;
50769;SDS011;36740;48.698;11.472;2023-05-07T04:17:32;10.27;;;3.92;;
50769;SDS011;36740;48.698;11.472;2023-05-07T04:20:17;10.55;;;4.28;;
50769;SDS011;36740;48.698;11.472;2023-05-07T04:23:03;7.25;;;3.95;;
50769;SDS011;36740;48.698;11.472;2023-05-07T04:25:49;6.47;;;3.58;;
50769;SDS011;36740;48.698;11.472;2023-05-07T04:28:35;4.95;;;3.80;;
50769;SDS011;36740;48.698;11.472;2023-05-07T04:31:20;7.57;;;3.85;;
50769;SDS011;36740;48.698;11.472;2023-05-07T04:34:06;4.65;;;2.92;;
50769;SDS011;36740;48.698;11.472;2023-05-07T04:36:52;6.30;;;3.35;;
50769;SDS011;36740;48.698;11.472;2023-05-07T04:39:38;6.10;;;4.63;;
50769;SDS011;36740;48.698;11.472;2023-05-07T04:42:23;7.72;;;3.90;;
50769;SDS011;36740;48.698;11.472;2023-05-07T04:45:10;6.07;;;4.13;;
50769;SDS011;36740;48.698;11.472;2023-05-07T04:47:55;6.13;;;3.90;;
50769;SDS011;36740;48.698;11.472;2023-05-07T04:50:41;5.05;;;3.78;;
50769;SDS011;36740;48.698;11.472;2023-05-07T04:53:27;5.13;;;4.03;;
50769;SDS011;36740;48.698;11.472;2023-05-07T04:56:12;7.53;;;3.90;;
50769;SDS011;36740;48.698;11.472;2023-05-07T04:58:58;5.10;;;4.10;;
50769;SDS011;36740;48.698;11.472;2023-05-07T05:01:43;5.93;;;4.25;;
50769;SDS011;36740;48.698;11.472;2023-05-07T05:04:29;5.40;;;3.47;;
50769;SDS011;36740;48.698;11.472;2023-05-07T05:07:15;7.68;;;4.43;;
50769;SDS011;36740;48.698;11.472;2023-05-07T05:10:01;8.93;;;3.80;;
50769;SDS011;36740;48.698;11.472;2023-05-07T05:12:47;7.47;;;4.68;;
50769;SDS011;36740;48.698;11.472;2023-05-07T05:15:33;6.00;;;3.72;;
50769;SDS011;36740;48.698;11.472;2023-05-07T05:18:18;4.93;;;3.85;;
50769;SDS011;36740;48.698;11.472;2023-05-07T05:21:04;6.50;;;4.57;;
50769;SDS011;36740;48.698;11.472;2023-05-07T05:23:50;7.85;;;4.10;;
50769;SDS011;36740;48.698;11.472;2023-05-07T05:26:35;15.65;;;5.55;;
50769;SDS011;36740;48.698;11.472;2023-05-07T05:29:21;7.25;;;5.30;;
50769;SDS011;36740;48.698;11.472;2023-05-07T05:32:07;8.52;;;5.13;;
50769;SDS011;36740;48.698;11.472;2023-05-07T05:34:52;18.35;;;5.32;;
50769;SDS011;36740;48.698;11.472;2023-05-07T05:37:38;8.13;;;4.85;;
50769;SDS011;36740;48.698;11.472;2023-05-07T05:40:23;10.60;;;5.68;;
50769;SDS011;36740;48.698;11.472;2023-05-07T05:43:09;6.78;;;4.28;;
50769;SDS011;36740;48.698;11.472;2023-05-07T05:45:55;7.00;;;5.35;;
50769;SDS011;36740;48.698;11.472;2023-05-07T05:48:41;8.05;;;4.47;;
50769;SDS011;36740;48.698;11.472;2023-05-07T05:51:26;8.85;;;6.43;;
50769;SDS011;36740;48.698;11.472;2023-05-07T05:54:12;9.98;;;4.80;;
50769;SDS011;36740;48.698;11.472;2023-05-07T05:56:57;7.47;;;4.85;;
50769;SDS011;36740;48.698;11.472;2023-05-07T05:59:43;9.00;;;5.72;;
50769;SDS011;36740;48.698;11.472;2023-05-07T06:02:29;8.23;;;5.00;;
50769;SDS011;36740;48.698;11.472;2023-05-07T06:05:14;10.02;;;6.70;;
50769;SDS011;36740;48.698;11.472;2023-05-07T06:08:00;9.38;;;5.18;;
50769;SDS011;36740;48.698;11.472;2023-05-07T06:10:45;7.78;;;4.72;;
50769;SDS011;36740;48.698;11.472;2023-05-07T06:13:31;8.45;;;5.95;;
50769;SDS011;36740;48.698;11.472;2023-05-07T06:16:17;11.85;;;6.80;;
50769;SDS011;36740;48.698;11.472;2023-05-07T06:19:02;8.82;;;6.20;;
50769;SDS011;36740;48.698;11.472;2023-05-07T06:21:48;9.93;;;6.15;;
50769;SDS011;36740;48.698;11.472;2023-05-07T06:24:34;7.45;;;3.65;;
50769;SDS011;36740;48.698;11.472;2023-05-07T06:27:19;8.52;;;5.72;;
50769;SDS011;36740;48.698;11.472;2023-05-07T06:30:05;7.72;;;5.03;;
50769;SDS011;36740;48.698;11.472;2023-05-07T06:32:51;6.70;;;4.57;;
50769;SDS011;36740;48.698;11.472;2023-05-07T06:35:37;6.70;;;3.95;;
50769;SDS011;36740;48.698;11.472;2023-05-07T06:38:22;7.93;;;4.10;;
50769;SDS011;36740;48.698;11.472;2023-05-07T06:41:08;7.68;;;3.80;;
50769;SDS011;36740;48.698;11.472;2023-05-07T06:43:53;5.40;;;3.70;;
50769;SDS011;36740;48.698;11.472;2023-05-07T06:46:39;6.25;;;5.18;;
50769;SDS011;36740;48.698;11.472;2023-05-07T06:49:25;7.47;;;4.25;;
50769;SDS011;36740;48.698;11.472;2023-05-07T06:52:10;7.65;;;5.20;;
50769;SDS011;36740;48.698;11.472;2023-05-07T06:54:56;6.88;;;4.05;;
50769;SDS011;36740;48.698;11.472;2023-05-07T06:57:42;18.45;;;5.45;;
50769;SDS011;36740;48.698;11.472;2023-05-07T07:00:27;5.55;;;3.75;;
50769;SDS011;36740;48.698;11.472;2023-05-07T07:03:13;6.45;;;3.70;;
50769;SDS011;36740;48.698;11.472;2023-05-07T07:05:58;9.73;;;4.07;;
50769;SDS011;36740;48.698;11.472;2023-05-07T07:08:44;7.15;;;3.60;;
50769;SDS011;36740;48.698;11.472;2023-05-07T07:11:30;3.58;;;2.85;;
50769;SDS011;36740;48.698;11.472;2023-05-07T07:14:15;7.65;;;4.72;;
50769;SDS011;36740;48.698;11.472;2023-05-07T07:17:01;7.80;;;4.53;;
50769;SDS011;36740;48.698;11.472;2023-05-07T07:19:46;6.60;;;3.85;;
50769;SDS011;36740;48.698;11.472;2023-05-07T07:22:32;5.90;;;3.63;;
50769;SDS011;36740;48.698;11.472;2023-05-07T07:25:18;6.22;;;4.22;;
50769;SDS011;36740;48.698;11.472;2023-05-07T07:28:04;7.13;;;4.72;;
50769;SDS011;36740;48.698;11.472;2023-05-07T07:30:50;9.57;;;5.43;;
50769;SDS011;36740;48.698;11.472;2023-05-07T07:33:36;7.75;;;4.07;;
50769;SDS011;36740;48.698;11.472;2023-05-07T07:36:21;6.90;;;4.43;;
50769;SDS011;36740;48.698;11.472;2023-05-07T07:39:07;9.63;;;4.90;;
50769;SDS011;36740;48.698;11.472;2023-05-07T07:41:53;10.45;;;5.13;;
50769;SDS011;36740;48.698;11.472;2023-05-07T07:44:39;7.90;;;4.80;;
50769;SDS011;36740;48.698;11.472;2023-05-07T07:47:24;7.65;;;4.05;;
50769;SDS011;36740;48.698;11.472;2023-05-07T07:50:10;5.72;;;4.43;;
50769;SDS011;36740;48.698;11.472;2023-05-07T07:52:56;7.72;;;3.65;;
50769;SDS011;36740;48.698;11.472;2023-05-07T07:55:42;8.65;;;4.53;;
50769;SDS011;36740;48.698;11.472;2023-05-07T07:58:27;8.23;;;4.30;;
50769;SDS011;36740;48.698;11.472;2023-05-07T08:01:13;8.80;;;4.05;;
50769;SDS011;36740;48.698;11.472;2023-05-07T08:04:00;16.73;;;4.20;;
50769;SDS011;36740;48.698;11.472;2023-05-07T08:06:48;7.45;;;4.15;;
50769;SDS011;36740;48.698;11.472;2023-05-07T08:09:33;8.73;;;4.40;;
50769;SDS011;36740;48.698;11.472;2023-05-07T08:12:19;7.88;;;4.97;;
50769;SDS011;36740;48.698;11.472;2023-05-07T08:15:05;9.43;;;4.78;;
50769;SDS011;36740;48.698;11.472;2023-05-07T08:17:51;6.53;;;4.13;;
50769;SDS011;36740;48.698;11.472;2023-05-07T08:20:37;9.98;;;4.18;;
50769;SDS011;36740;48.698;11.472;2023-05-07T08:23:24;8.25;;;4.93;;
50769;SDS011;36740;48.698;11.472;2023-05-07T08:26:10;7.78;;;4.47;;
50769;SDS011;36740;48.698;11.472;2023-05-07T08:28:56;15.82;;;5.93;;
50769;SDS011;36740;48.698;11.472;2023-05-07T08:31:42;8.45;;;4.13;;
50769;SDS011;36740;48.698;11.472;2023-05-07T08:34:27;8.15;;;4.97;;
50769;SDS011;36740;48.698;11.472;2023-05-07T08:37:13;9.15;;;5.63;;
50769;SDS011;36740;48.698;11.472;2023-05-07T08:39:59;7.78;;;4.45;;
50769;SDS011;36740;48.698;11.472;2023-05-07T08:42:44;11.90;;;4.38;;
50769;SDS011;36740;48.698;11.472;2023-05-07T08:45:32;14.93;;;5.93;;
50769;SDS011;36740;48.698;11.472;2023-05-07T08:48:18;8.52;;;5.10;;
50769;SDS011;36740;48.698;11.472;2023-05-07T08:51:06;8.65;;;5.18;;
50769;SDS011;36740;48.698;11.472;2023-05-07T08:53:52;9.52;;;6.53;;
50769;SDS011;36740;48.698;11.472;2023-05-07T08:56:37;7.40;;;5.15;;
50769;SDS011;36740;48.698;11.472;2023-05-07T08:59:25;11.55;;;5.80;;
50769;SDS011;36740;48.698;11.472;2023-05-07T09:02:11;11.13;;;5.53;;
50769;SDS011;36740;48.698;11.472;2023-05-07T09:04:56;8.38;;;5.32;;
50769;SDS011;36740;48.698;11.472;2023-05-07T09:07:42;7.72;;;5.85;;
50769;SDS011;36740;48.698;11.472;2023-05-07T09:10:28;9.98;;;5.32;;
50769;SDS011;36740;48.698;11.472;2023-05-07T09:13:14;9.13;;;5.75;;
50769;SDS011;36740;48.698;11.472;2023-05-07T09:16:09;9.15;;;4.80;;
50769;SDS011;36740;48.698;11.472;2023-05-07T09:18:56;9.38;;;5.95;;
50769;SDS011;36740;48.698;11.472;2023-05-07T09:21:42;7.70;;;5.03;;
50769;SDS011;36740;48.698;11.472;2023-05-07T09:24:28;10.90;;;6.93;;
50769;SDS011;36740;48.698;11.472;2023-05-07T09:27:16;7.50;;;4.93;;
50769;SDS011;36740;48.698;11.472;2023-05-07T09:30:03;9.60;;;6.28;;
50769;SDS011;36740;48.698;11.472;2023-05-07T09:32:48;8.70;;;5.18;;
50769;SDS011;36740;48.698;11.472;2023-05-07T09:35:34;14.13;;;5.93;;
50769;SDS011;36740;48.698;11.472;2023-05-07T09:38:19;11.35;;;5.35;;
50769;SDS011;36740;48.698;11.472;2023-05-07T09:41:10;5.75;;;3.55;;
50769;SDS011;36740;48.698;11.472;2023-05-07T09:43:56;6.53;;;4.03;;
50769;SDS011;36740;48.698;11.472;2023-05-07T09:46:42;9.18;;;5.82;;
50769;SDS011;36740;48.698;11.472;2023-05-07T09:49:29;8.13;;;5.32;;
50769;SDS011;36740;48.698;11.472;2023-05-07T09:52:15;6.35;;;3.38;;
50769;SDS011;36740;48.698;11.472;2023-05-07T09:55:01;8.30;;;5.32;;
50769;SDS011;36740;48.698;11.472;2023-05-07T09:57:51;7.13;;;3.90;;
50769;SDS011;36740;48.698;11.472;2023-05-07T10:03:23;6.30;;;4.43;;
50769;SDS011;36740;48.698;11.472;2023-05-07T10:06:09;6.60;;;4.93;;
50769;SDS011;36740;48.698;11.472;2023-05-07T10:08:56;7.47;;;4.82;;
50769;SDS011;36740;48.698;11.472;2023-05-07T10:11:42;5.70;;;3.65;;
50769;SDS011;36740;48.698;11.472;2023-05-07T10:14:29;7.60;;;4.75;;
50769;SDS011;36740;48.698;11.472;2023-05-07T10:17:15;11.63;;;7.85;;
50769;SDS011;36740;48.698;11.472;2023-05-07T10:20:01;11.82;;;5.28;;
50769;SDS011;36740;48.698;11.472;2023-05-07T10:22:48;6.35;;;4.32;;
50769;SDS011;36740;48.698;11.472;2023-05-07T10:25:34;9.63;;;7.07;;
50769;SDS011;36740;48.698;11.472;2023-05-07T10:28:19;9.23;;;5.63;;
50769;SDS011;36740;48.698;11.472;2023-05-07T10:33:53;4.82;;;3.60;;
50769;SDS011;36740;48.698;11.472;2023-05-07T10:36:40;5.70;;;3.40;;
50769;SDS011;36740;48.698;11.472;2023-05-07T10:39:27;4.25;;;3.80;;
50769;SDS011;36740;48.698;11.472;2023-05-07T10:42:13;4.75;;;3.30;;
50769;SDS011;36740;48.698;11.472;2023-05-07T10:45:11;4.53;;;3.35;;
50769;SDS011;36740;48.698;11.472;2023-05-07T10:48:06;5.03;;;2.72;;
50769;SDS011;36740;48.698;11.472;2023-05-07T10:50:53;5.45;;;3.58;;
50769;SDS011;36740;48.698;11.472;2023-05-07T10:56:56;5.93;;;2.95;;
50769;SDS011;36740;48.698;11.472;2023-05-07T10:59:42;7.97;;;3.25;;
50769;SDS011;36740;48.698;11.472;2023-05-07T11:05:45;3.75;;;2.75;;
50769;SDS011;36740;48.698;11.472;2023-05-07T11:08:52;4.55;;;3.05;;
50769;SDS011;36740;48.698;11.472;2023-05-07T11:11:47;4.93;;;3.00;;
50769;SDS011;36740;48.698;11.472;2023-05-07T11:17:30;6.55;;;2.72;;
50769;SDS011;36740;48.698;11.472;2023-05-07T11:26:20;3.05;;;2.38;;
50769;SDS011;36740;48.698;11.472;2023-05-07T11:29:10;2.47;;;2.00;;
50769;SDS011;36740;48.698;11.472;2023-05-07T11:31:56;5.72;;;3.38;;
50769;SDS011;36740;48.698;11.472;2023-05-07T11:34:43;4.47;;;2.92;;
50769;SDS011;36740;48.698;11.472;2023-05-07T11:37:29;5.25;;;2.15;;
50769;SDS011;36740;48.698;11.472;2023-05-07T11:40:15;4.28;;;2.53;;
50769;SDS011;36740;48.698;11.472;2023-05-07T11:43:09;4.95;;;2.45;;
50769;SDS011;36740;48.698;11.472;2023-05-07T11:45:58;4.82;;;3.28;;
50769;SDS011;36740;48.698;11.472;2023-05-07T11:48:49;5.75;;;2.65;;
50769;SDS011;36740;48.698;11.472;2023-05-07T11:51:35;6.47;;;2.85;;
50769;SDS011;36740;48.698;11.472;2023-05-07T11:54:21;5.70;;;2.65;;
50769;SDS011;36740;48.698;11.472;2023-05-07T11:57:10;5.32;;;2.13;;
50769;SDS011;36740;48.698;11.472;2023-05-07T12:00:00;18.88;;;3.35;;
50769;SDS011;36740;48.698;11.472;2023-05-07T12:02:47;3.45;;;2.83;;
50769;SDS011;36740;48.698;11.472;2023-05-07T12:05:33;2.60;;;2.40;;
50769;SDS011;36740;48.698;11.472;2023-05-07T12:08:19;2.47;;;2.22;;
50769;SDS011;36740;48.698;11.472;2023-05-07T12:11:06;7.47;;;2.80;;
50769;SDS011;36740;48.698;11.472;2023-05-07T12:13:53;3.42;;;2.60;;
50769;SDS011;36740;48.698;11.472;2023-05-07T12:16:39;3.90;;;2.28;;
50769;SDS011;36740;48.698;11.472;2023-05-07T12:19:25;2.92;;;1.98;;
50769;SDS011;36740;48.698;11.472;2023-05-07T12:22:11;3.05;;;2.20;;
50769;SDS011;36740;48.698;11.472;2023-05-07T12:24:57;5.43;;;3.28;;
50769;SDS011;36740;48.698;11.472;2023-05-07T12:27:43;3.88;;;2.72;;
50769;SDS011;36740;48.698;11.472;2023-05-07T12:30:29;5.57;;;2.72;;
50769;SDS011;36740;48.698;11.472;2023-05-07T12:33:18;2.72;;;2.03;;
50769;SDS011;36740;48.698;11.472;2023-05-07T12:36:05;5.45;;;2.83;;
50769;SDS011;36740;48.698;11.472;2023-05-07T12:38:52;3.00;;;2.20;;
50769;SDS011;36740;48.698;11.472;2023-05-07T12:41:53;3.22;;;1.90;;
50769;SDS011;36740;48.698;11.472;2023-05-07T12:44:39;4.25;;;2.55;;
50769;SDS011;36740;48.698;11.472;2023-05-07T12:47:25;9.77;;;2.53;;
50769;SDS011;36740;48.698;11.472;2023-05-07T12:50:11;9.93;;;2.75;;
50769;SDS011;36740;48.698;11.472;2023-05-07T12:52:57;2.47;;;2.03;;
50769;SDS011;36740;48.698;11.472;2023-05-07T12:55:46;6.32;;;2.05;;
50769;SDS011;36740;48.698;11.472;2023-05-07T13:01:17;5.28;;;2.42;;
50769;SDS011;36740;48.698;11.472;2023-05-07T13:04:04;5.78;;;2.38;;
50769;SDS011;36740;48.698;11.472;2023-05-07T13:06:50;3.03;;;2.03;;
50769;SDS011;36740;48.698;11.472;2023-05-07T13:09:36;3.75;;;2.00;;
50769;SDS011;36740;48.698;11.472;2023-05-07T13:12:22;6.25;;;2.65;;
50769;SDS011;36740;48.698;11.472;2023-05-07T13:15:08;4.63;;;2.38;;
50769;SDS011;36740;48.698;11.472;2023-05-07T13:17:53;3.45;;;2.20;;
50769;SDS011;36740;48.698;11.472;2023-05-07T13:20:39;3.55;;;2.30;;
50769;SDS011;36740;48.698;11.472;2023-05-07T13:23:24;3.13;;;1.58;;
50769;SDS011;36740;48.698;11.472;2023-05-07T13:26:10;1.85;;;1.67;;
50769;SDS011;36740;48.698;11.472;2023-05-07T13:28:56;2.30;;;1.52;;
50769;SDS011;36740;48.698;11.472;2023-05-07T13:31:41;1.85;;;1.75;;
50769;SDS011;36740;48.698;11.472;2023-05-07T13:34:29;2.38;;;2.15;;
50769;SDS011;36740;48.698;11.472;2023-05-07T13:37:14;4.05;;;2.38;;
50769;SDS011;36740;48.698;11.472;2023-05-07T13:40:00;2.30;;;2.10;;
50769;SDS011;36740;48.698;11.472;2023-05-07T13:42:46;2.97;;;2.10;;
50769;SDS011;36740;48.698;11.472;2023-05-07T13:45:31;3.40;;;1.92;;
50769;SDS011;36740;48.698;11.472;2023-05-07T13:48:17;2.80;;;2.08;;
50769;SDS011;36740;48.698;11.472;2023-05-07T13:51:03;3.92;;;2.35;;
50769;SDS011;36740;48.698;11.472;2023-05-07T13:53:48;5.10;;;3.10;;
50769;SDS011;36740;48.698;11.472;2023-05-07T13:56:34;4.72;;;2.10;;
50769;SDS011;36740;48.698;11.472;2023-05-07T13:59:19;2.85;;;2.15;;
50769;SDS011;36740;48.698;11.472;2023-05-07T14:02:05;2.47;;;1.80;;
50769;SDS011;36740;48.698;11.472;2023-05-07T14:04:51;4.18;;;2.88;;
50769;SDS011;36740;48.698;11.472;2023-05-07T14:07:36;2.08;;;1.88;;
50769;SDS011;36740;48.698;11.472;2023-05-07T14:10:22;3.25;;;2.17;;
50769;SDS011;36740;48.698;11.472;2023-05-07T14:13:08;5.28;;;2.50;;
50769;SDS011;36740;48.698;11.472;2023-05-07T14:15:53;4.40;;;2.20;;
50769;SDS011;36740;48.698;11.472;2023-05-07T14:18:39;3.38;;;2.60;;
50769;SDS011;36740;48.698;11.472;2023-05-07T14:21:25;2.55;;;1.98;;
50769;SDS011;36740;48.698;11.472;2023-05-07T14:24:10;4.10;;;1.95;;
50769;SDS011;36740;48.698;11.472;2023-05-07T14:26:56;2.35;;;1.73;;
50769;SDS011;36740;48.698;11.472;2023-05-07T14:29:42;2.83;;;2.40;;
50769;SDS011;36740;48.698;11.472;2023-05-07T14:32:28;4.50;;;2.10;;
50769;SDS011;36740;48.698;11.472;2023-05-07T14:35:14;2.38;;;1.73;;
50769;SDS011;36740;48.698;11.472;2023-05-07T14:37:59;1.55;;;1.45;;
50769;SDS011;36740;48.698;11.472;2023-05-07T14:40:45;2.58;;;2.17;;
50769;SDS011;36740;48.698;11.472;2023-05-07T14:43:30;3.15;;;2.20;;
50769;SDS011;36740;48.698;11.472;2023-05-07T14:46:17;2.40;;;1.75;;
50769;SDS011;36740;48.698;11.472;2023-05-07T14:49:02;5.10;;;2.30;;
50769;SDS011;36740;48.698;11.472;2023-05-07T14:51:48;2.63;;;1.85;;
50769;SDS011;36740;48.698;11.472;2023-05-07T14:54:34;3.28;;;1.70;;
50769;SDS011;36740;48.698;11.472;2023-05-07T14:57:20;3.35;;;2.17;;
50769;SDS011;36740;48.698;11.472;2023-05-07T15:00:06;1.95;;;1.70;;
50769;SDS011;36740;48.698;11.472;2023-05-07T15:02:52;4.35;;;1.85;;
50769;SDS011;36740;48.698;11.472;2023-05-07T15:05:38;1.65;;;1.27;;
50769;SDS011;36740;48.698;11.472;2023-05-07T15:08:23;2.13;;;1.83;;
50769;SDS011;36740;48.698;11.472;2023-05-07T15:11:09;4.57;;;2.83;;
50769;SDS011;36740;48.698;11.472;2023-05-07T15:13:54;2.85;;;2.38;;
50769;SDS011;36740;48.698;11.472;2023-05-07T15:16:40;2.45;;;1.90;;
50769;SDS011;36740;48.698;11.472;2023-05-07T15:19:26;3.17;;;2.08;;
50769;SDS011;36740;48.698;11.472;2023-05-07T15:22:14;4.00;;;2.53;;
50769;SDS011;36740;48.698;11.472;2023-05-07T15:25:00;3.25;;;1.55;;
50769;SDS011;36740;48.698;11.472;2023-05-07T15:27:46;3.00;;;2.17;;
50769;SDS011;36740;48.698;11.472;2023-05-07T15:30:31;3.15;;;2.00;;
50769;SDS011;36740;48.698;11.472;2023-05-07T15:33:17;5.70;;;1.88;;
50769;SDS011;36740;48.698;11.472;2023-05-07T15:36:03;4.07;;;2.25;;
50769;SDS011;36740;48.698;11.472;2023-05-07T15:38:49;5.43;;;2.78;;
50769;SDS011;36740;48.698;11.472;2023-05-07T15:41:34;2.70;;;1.88;;
50769;SDS011;36740;48.698;11.472;2023-05-07T15:44:22;2.90;;;2.00;;
50769;SDS011;36740;48.698;11.472;2023-05-07T15:47:07;3.17;;;2.13;;
50769;SDS011;36740;48.698;11.472;2023-05-07T15:49:53;4.25;;;2.47;;
50769;SDS011;36740;48.698;11.472;2023-05-07T15:52:39;5.07;;;2.05;;
50769;SDS011;36740;48.698;11.472;2023-05-07T15:55:26;2.78;;;1.80;;
50769;SDS011;36740;48.698;11.472;2023-05-07T15:58:11;3.08;;;2.25;;
50769;SDS011;36740;48.698;11.472;2023-05-07T16:00:57;3.78;;;2.10;;
50769;SDS011;36740;48.698;11.472;2023-05-07T16:03:43;3.80;;;2.63;;
50769;SDS011;36740;48.698;11.472;2023-05-07T16:06:29;3.03;;;2.53;;
50769;SDS011;36740;48.698;11.472;2023-05-07T16:09:15;3.85;;;2.35;;
50769;SDS011;36740;48.698;11.472;2023-05-07T16:12:01;2.72;;;2.33;;
50769;SDS011;36740;48.698;11.472;2023-05-07T16:14:46;2.47;;;1.88;;
50769;SDS011;36740;48.698;11.472;2023-05-07T16:17:32;3.10;;;2.22;;
50769;SDS011;36740;48.698;11.472;2023-05-07T16:20:18;8.02;;;2.90;;
50769;SDS011;36740;48.698;11.472;2023-05-07T16:23:04;3.72;;;1.63;;
50769;SDS011;36740;48.698;11.472;2023-05-07T16:25:49;5.28;;;2.92;;
50769;SDS011;36740;48.698;11.472;2023-05-07T16:28:36;11.98;;;2.88;;
50769;SDS011;36740;48.698;11.472;2023-05-07T16:31:21;2.35;;;1.92;;
50769;SDS011;36740;48.698;11.472;2023-05-07T16:34:07;3.55;;;2.83;;
50769;SDS011;36740;48.698;11.472;2023-05-07T16:36:53;2.65;;;2.13;;
50769;SDS011;36740;48.698;11.472;2023-05-07T16:39:38;2.42;;;1.92;;
50769;SDS011;36740;48.698;11.472;2023-05-07T16:42:24;3.40;;;2.40;;
50769;SDS011;36740;48.698;11.472;2023-05-07T16:45:09;7.07;;;3.83;;
50769;SDS011;36740;48.698;11.472;2023-05-07T16:47:55;4.10;;;2.72;;